Time;durP1;ratioP1;P1;durP2;ratioP2;P2;SDS_P1;SDS_P2;PMS_P1;PMS_P2;Temp;Humidity;BMP_temperature;BMP_pressure;BME280_temperature;BME280_humidity;BME280_pressure;Samples;Min_cycle;Max_cycle;Signal;HPM_P1;HPM_P2
2022/06/23 00:01:18;;;;;;;8.63;7.25;;;13.30;99.90;;;;;;4957811;28;94433;-39
2022/06/23 00:03:45;;;;;;;8.00;7.13;;;13.30;99.90;;;;;;4973286;28;96340;-33
2022/06/23 00:06:42;;;;;;;6.43;5.72;;;13.30;99.90;;;;;;4958987;28;94298;-37
2022/06/23 00:09:34;;;;;;;7.68;6.88;;;13.20;99.90;;;;;;4958873;28;94525;-34
2022/06/23 00:12:02;;;;;;;7.38;6.57;;;13.20;99.90;;;;;;4958190;28;94520;-36
2022/06/23 00:14:28;;;;;;;9.07;7.05;;;13.10;99.90;;;;;;4958643;28;93938;-34
2022/06/23 00:16:53;;;;;;;7.45;6.68;;;13.10;99.90;;;;;;4957825;28;94054;-34
2022/06/23 00:19:19;;;;;;;10.65;7.55;;;13.10;99.90;;;;;;4958271;28;92246;-37
2022/06/23 00:21:51;;;;;;;7.40;6.43;;;13.10;99.90;;;;;;4957277;28;95535;-34
2022/06/23 00:24:24;;;;;;;7.07;6.45;;;13.10;99.90;;;;;;4957763;28;97267;-34
2022/06/23 00:26:51;;;;;;;6.82;5.50;;;13.00;99.90;;;;;;4957411;28;92186;-36
2022/06/23 00:29:21;;;;;;;7.80;7.00;;;13.00;99.90;;;;;;4958145;28;93712;-33
2022/06/23 00:32:03;;;;;;;7.15;6.47;;;12.90;99.90;;;;;;4957599;28;94717;-35
2022/06/23 00:34:37;;;;;;;8.18;6.68;;;12.90;99.90;;;;;;4957741;28;94437;-33
2022/06/23 00:37:12;;;;;;;6.80;6.18;;;12.90;99.90;;;;;;4957932;28;93564;-36
2022/06/23 00:39:42;;;;;;;8.30;7.15;;;12.90;99.90;;;;;;4958077;28;93707;-39
2022/06/23 00:42:21;;;;;;;7.63;6.93;;;12.90;99.90;;;;;;4957533;28;94817;-33
2022/06/23 00:44:54;;;;;;;8.55;7.57;;;12.90;99.90;;;;;;4957151;28;94563;-35
2022/06/23 00:47:25;;;;;;;8.82;7.63;;;12.80;99.90;;;;;;4957478;28;94013;-33
2022/06/23 00:50:19;;;;;;;8.25;7.30;;;12.80;99.90;;;;;;4957319;28;93203;-35
2022/06/23 00:52:51;;;;;;;7.13;6.43;;;12.80;99.90;;;;;;4957058;28;94808;-35
2022/06/23 00:55:42;;;;;;;8.88;7.22;;;12.70;99.90;;;;;;4956896;28;94627;-34
2022/06/23 00:58:21;;;;;;;8.27;7.30;;;12.80;99.90;;;;;;4958138;28;93478;-35
2022/06/23 01:00:52;;;;;;;10.20;7.07;;;12.70;99.90;;;;;;4957167;28;93130;-36
2022/06/23 01:06:29;;;;;;;8.93;8.02;;;12.80;99.90;;;;;;4915864;28;94517;-37
2022/06/23 01:09:12;;;;;;;8.48;7.07;;;12.70;99.90;;;;;;4918108;28;94931;-38
2022/06/23 01:12:03;;;;;;;8.35;7.55;;;12.70;99.90;;;;;;4904783;28;92664;-37
2022/06/23 01:14:47;;;;;;;12.68;6.80;;;12.60;99.90;;;;;;4916865;28;95775;-38
2022/06/23 01:17:36;;;;;;;7.95;7.15;;;12.60;99.90;;;;;;4917955;28;95547;-35
2022/06/23 01:20:13;;;;;;;8.50;7.30;;;12.60;99.90;;;;;;4917904;28;94626;-34
2022/06/23 01:22:51;;;;;;;11.37;7.70;;;12.60;99.90;;;;;;4918468;28;94363;-38
2022/06/23 01:25:41;;;;;;;7.63;6.50;;;12.60;99.90;;;;;;4904887;28;94765;-37
2022/06/23 01:28:15;;;;;;;8.25;7.50;;;12.50;99.90;;;;;;4917616;28;94432;-37
2022/06/23 01:30:58;;;;;;;10.00;8.45;;;12.50;99.90;;;;;;4918631;28;94424;-34
2022/06/23 01:33:57;;;;;;;11.77;8.90;;;12.50;99.90;;;;;;4918629;28;93243;-34
2022/06/23 01:36:57;;;;;;;10.15;8.95;;;12.40;99.90;;;;;;4917429;28;94331;-35
2022/06/23 01:39:32;;;;;;;8.82;7.95;;;12.40;99.90;;;;;;4912817;28;94841;-35
2022/06/23 01:42:03;;;;;;;11.82;8.52;;;12.40;99.90;;;;;;4917378;28;93208;-38
2022/06/23 01:45:05;;;;;;;12.38;9.20;;;12.30;99.90;;;;;;4917644;28;92922;-35
2022/06/23 01:47:41;;;;;;;11.73;9.13;;;12.30;99.90;;;;;;4916987;28;94744;-35
2022/06/23 01:50:13;;;;;;;9.23;8.30;;;12.30;99.90;;;;;;4917639;28;94393;-33
2022/06/23 01:52:39;;;;;;;11.15;8.77;;;12.20;99.90;;;;;;4918319;28;94462;-36
2022/06/23 01:55:19;;;;;;;10.57;8.82;;;12.30;99.90;;;;;;4917229;28;93867;-34
2022/06/23 01:57:49;;;;;;;8.23;7.15;;;12.20;99.90;;;;;;4917288;28;95336;-36
2022/06/23 02:00:21;;;;;;;11.43;8.52;;;12.10;99.90;;;;;;4917754;28;94668;-34
2022/06/23 02:03:12;;;;;;;8.93;8.02;;;12.10;99.90;;;;;;4918665;28;92851;-35
2022/06/23 02:06:07;;;;;;;11.88;9.55;;;12.00;99.90;;;;;;4933847;28;93434;-38
2022/06/23 02:08:44;;;;;;;10.50;9.43;;;12.00;99.90;;;;;;4936831;28;95722;-34
2022/06/23 02:11:21;;;;;;;10.93;9.82;;;12.00;99.90;;;;;;4936836;28;97319;-34
2022/06/23 02:14:26;;;;;;;11.30;8.52;;;11.90;99.90;;;;;;4936825;28;93523;-33
2022/06/23 02:17:36;;;;;;;11.52;10.32;;;11.90;99.90;;;;;;4915632;28;93765;-38
2022/06/23 02:20:32;;;;;;;11.07;9.63;;;11.90;99.90;;;;;;4918993;28;94373;-35
2022/06/23 02:23:33;;;;;;;10.43;9.32;;;12.00;99.90;;;;;;4936933;28;95849;-38
2022/06/23 02:26:24;;;;;;;11.73;10.50;;;12.00;99.90;;;;;;4940294;28;94308;-36
2022/06/23 02:29:02;;;;;;;11.20;9.90;;;11.90;99.90;;;;;;4939951;28;92051;-38
2022/06/23 02:31:32;;;;;;;13.55;11.07;;;12.00;99.90;;;;;;4940670;28;94833;-35
2022/06/23 02:34:14;;;;;;;13.57;11.65;;;12.00;99.90;;;;;;4939670;28;94470;-35
2022/06/23 02:36:52;;;;;;;12.95;11.30;;;11.90;99.90;;;;;;4938940;28;93334;-34
2022/06/23 02:39:25;;;;;;;13.98;10.52;;;11.90;99.90;;;;;;4939867;28;93816;-34
2022/06/23 02:42:01;;;;;;;15.30;11.88;;;11.90;99.90;;;;;;4939310;28;95930;-36
2022/06/23 02:45:09;;;;;;;14.32;12.80;;;11.80;99.90;;;;;;4940031;28;94263;-36
2022/06/23 02:47:47;;;;;;;13.88;12.40;;;11.80;99.90;;;;;;4938578;28;93454;-36
2022/06/23 02:50:15;;;;;;;14.63;12.30;;;11.80;99.90;;;;;;4938312;28;94680;-39
2022/06/23 02:52:48;;;;;;;;;;;11.80;99.90;;;;;;4939841;28;94727;-33
2022/06/23 02:55:52;;;;;;;12.13;10.85;;;11.70;99.90;;;;;;4941396;28;94195;-35
2022/06/23 02:58:29;;;;;;;14.25;12.75;;;11.70;99.90;;;;;;4939565;28;94364;-36
2022/06/23 03:01:01;;;;;;;16.17;11.93;;;11.70;99.90;;;;;;4939358;28;94872;-34
2022/06/23 03:03:42;;;;;;;19.17;13.07;;;11.70;99.90;;;;;;4938987;28;96211;-38
2022/06/23 03:06:31;;;;;;;11.98;10.45;;;11.70;99.90;;;;;;4938963;28;95434;-37
2022/06/23 03:09:00;;;;;;;15.45;12.05;;;11.70;99.90;;;;;;4939230;28;92235;-34
2022/06/23 03:11:53;;;;;;;12.65;11.38;;;11.70;99.90;;;;;;4938707;28;93358;-36
2022/06/23 03:14:30;;;;;;;13.38;11.98;;;11.70;99.90;;;;;;4938975;28;94753;-35
2022/06/23 03:17:15;;;;;;;15.63;12.90;;;11.70;99.90;;;;;;4938643;28;94834;-33
2022/06/23 03:20:04;;;;;;;11.32;10.05;;;11.70;99.90;;;;;;4939439;28;93211;-39
2022/06/23 03:22:36;;;;;;;13.55;11.30;;;11.70;99.90;;;;;;4932354;28;92752;-33
2022/06/23 03:25:19;;;;;;;14.52;13.02;;;11.70;99.90;;;;;;4938590;28;94158;-34
2022/06/23 03:27:52;;;;;;;14.85;13.07;;;11.70;99.90;;;;;;4938797;28;94493;-34
2022/06/23 03:30:27;;;;;;;16.10;12.60;;;11.70;99.90;;;;;;4937938;28;93717;-33
2022/06/23 03:33:00;;;;;;;14.07;12.27;;;11.70;99.90;;;;;;4939092;28;92043;-36
2022/06/23 03:35:36;;;;;;;14.73;12.15;;;11.80;99.90;;;;;;4937455;28;95002;-38
2022/06/23 03:41:38;;;;;;;13.93;11.52;;;11.80;99.90;;;;;;4939171;28;93032;-34
2022/06/23 03:44:06;;;;;;;15.82;12.23;;;11.80;99.90;;;;;;4939095;28;94981;-33
2022/06/23 03:46:38;;;;;;;14.93;12.45;;;11.80;99.90;;;;;;4938342;28;94954;-34
2022/06/23 03:49:18;;;;;;;15.63;13.93;;;11.90;99.90;;;;;;4939049;28;94459;-33
2022/06/23 03:51:53;;;;;;;15.32;12.25;;;11.90;99.90;;;;;;4939144;28;93795;-35
2022/06/23 03:54:36;;;;;;;15.82;12.82;;;12.00;99.90;;;;;;4938207;28;93581;-36
2022/06/23 03:57:32;;;;;;;14.23;12.48;;;12.00;99.90;;;;;;4938347;28;95657;-37
2022/06/23 04:00:36;;;;;;;21.50;13.43;;;12.10;99.90;;;;;;4931805;28;95830;-36
2022/06/23 04:03:21;;;;;;;18.15;12.57;;;12.10;99.90;;;;;;4937879;28;93901;-34
2022/06/23 04:05:56;;;;;;;14.40;11.95;;;12.20;99.90;;;;;;4938431;28;94056;-35
2022/06/23 04:08:34;;;;;;;13.95;12.50;;;12.20;99.90;;;;;;4938375;28;96151;-34
2022/06/23 04:11:43;;;;;;;;;;;12.20;99.90;;;;;;4938679;28;94987;-33
2022/06/23 04:13:50;;;;;;;16.77;12.82;;;12.20;99.90;;;;;;4939685;28;93407;-35
2022/06/23 04:16:16;;;;;;;16.10;12.93;;;12.20;99.90;;;;;;4938505;28;93366;-37
2022/06/23 04:18:46;;;;;;;16.33;13.23;;;12.30;99.90;;;;;;4938202;28;94463;-37
2022/06/23 04:21:28;;;;;;;15.73;12.90;;;12.30;99.90;;;;;;4938393;28;94207;-35
2022/06/23 04:23:57;;;;;;;14.65;13.23;;;12.30;99.90;;;;;;4937501;28;94455;-35
2022/06/23 04:26:30;;;;;;;17.33;11.25;;;12.40;99.90;;;;;;4937750;28;94108;-36
2022/06/23 04:29:00;;;;;;;19.27;14.15;;;12.40;99.90;;;;;;4937353;28;94780;-35
2022/06/23 04:31:30;;;;;;;18.52;13.02;;;12.50;99.90;;;;;;4937735;28;94961;-36
2022/06/23 04:33:57;;;;;;;13.52;11.25;;;12.60;99.90;;;;;;4937840;28;94976;-33
2022/06/23 04:36:26;;;;;;;18.27;13.17;;;12.70;99.90;;;;;;4937392;28;93139;-34
2022/06/23 04:39:01;;;;;;;14.88;12.55;;;12.80;99.90;;;;;;4937092;28;94655;-33
2022/06/23 04:41:29;;;;;;;17.10;13.25;;;13.00;99.90;;;;;;4938003;28;94593;-36
2022/06/23 04:44:15;;;;;;;15.63;11.60;;;13.20;99.90;;;;;;4937905;28;93365;-34
2022/06/23 04:46:55;;;;;;;16.30;12.63;;;13.40;99.90;;;;;;4936941;28;94325;-35
2022/06/23 04:49:45;;;;;;;14.82;12.00;;;13.60;99.90;;;;;;4935831;28;97115;-34
2022/06/23 04:52:24;;;;;;;16.40;12.57;;;13.70;99.90;;;;;;4938144;28;96246;-33
2022/06/23 04:55:12;;;;;;;14.90;13.35;;;13.90;99.90;;;;;;4938149;28;92157;-33
2022/06/23 04:58:08;;;;;;;15.65;11.45;;;14.20;99.90;;;;;;4937773;28;94793;-36
2022/06/23 05:00:47;;;;;;;15.30;11.85;;;14.30;99.90;;;;;;4934767;28;94572;-36
2022/06/23 05:03:28;;;;;;;14.25;12.45;;;14.40;99.90;;;;;;4937315;28;96285;-33
2022/06/23 05:06:14;;;;;;;13.77;12.35;;;14.60;99.90;;;;;;4937902;28;92701;-33
2022/06/23 05:08:43;;;;;;;14.73;12.68;;;14.80;99.90;;;;;;4937764;28;93519;-35
2022/06/23 05:11:29;;;;;;;12.30;11.02;;;14.90;99.90;;;;;;4937216;28;94821;-37
2022/06/23 05:14:00;;;;;;;15.38;12.65;;;15.10;99.90;;;;;;4936971;28;94455;-36
2022/06/23 05:16:36;;;;;;;15.40;12.02;;;15.20;99.90;;;;;;4937144;28;95160;-35
2022/06/23 05:19:17;;;;;;;13.05;11.40;;;15.40;99.90;;;;;;4937120;28;93021;-33
2022/06/23 05:21:49;;;;;;;14.63;12.60;;;15.60;99.90;;;;;;4936989;28;94553;-39
2022/06/23 05:24:25;;;;;;;15.90;12.43;;;15.60;99.90;;;;;;4936885;28;95105;-38
2022/06/23 05:26:56;;;;;;;12.45;11.20;;;15.80;99.90;;;;;;4936654;28;94584;-39
2022/06/23 05:29:34;;;;;;;18.20;11.95;;;16.00;99.90;;;;;;4936624;28;94613;-35
2022/06/23 05:32:05;;;;;;;12.82;11.55;;;16.00;99.90;;;;;;4937191;28;95285;-40
2022/06/23 05:34:34;;;;;;;14.05;12.13;;;16.10;99.90;;;;;;4937507;28;95655;-37
2022/06/23 05:37:15;;;;;;;12.93;11.57;;;16.30;99.90;;;;;;4936047;28;92196;-35
2022/06/23 05:39:57;;;;;;;13.38;11.98;;;16.50;99.90;;;;;;4936475;28;93307;-37
2022/06/23 05:42:29;;;;;;;13.32;12.07;;;16.60;99.90;;;;;;4936814;28;96041;-37
2022/06/23 05:45:00;;;;;;;14.77;11.25;;;16.80;99.90;;;;;;4936470;28;96483;-36
2022/06/23 05:47:30;;;;;;;11.20;10.10;;;17.10;99.90;;;;;;4936857;28;92867;-35
2022/06/23 05:49:59;;;;;;;12.60;11.40;;;17.30;99.90;;;;;;4936110;28;93023;-33
2022/06/23 05:52:38;;;;;;;12.38;11.07;;;17.40;99.90;;;;;;4936667;28;94745;-38
2022/06/23 05:55:31;;;;;;;13.18;10.77;;;17.60;99.90;;;;;;4936925;28;94575;-38
2022/06/23 05:58:23;;;;;;;11.70;10.55;;;17.70;99.90;;;;;;4937142;28;92973;-35
2022/06/23 06:01:08;;;;;;;14.02;12.65;;;17.80;99.90;;;;;;4939510;28;92677;-35
2022/06/23 06:03:39;;;;;;;12.45;11.15;;;17.90;99.90;;;;;;4940960;28;94789;-33
2022/06/23 06:06:06;;;;;;;15.50;11.98;;;18.00;99.90;;;;;;4940282;28;94562;-35
2022/06/23 06:09:35;;;;;;;12.52;11.05;;;18.20;99.90;;;;;;4940168;28;94978;-35
2022/06/23 06:11:25;;;;;;;16.05;11.63;;;18.40;99.90;;;;;;4938912;28;92162;-36
2022/06/23 06:13:52;;;;;;;19.58;11.68;;;18.40;99.90;;;;;;4940165;28;94460;-34
2022/06/23 06:16:17;;;;;;;13.32;11.90;;;18.40;99.90;;;;;;4939442;28;94610;-35
2022/06/23 06:18:44;;;;;;;12.20;11.10;;;18.70;99.90;;;;;;4940247;28;92546;-38
2022/06/23 06:21:12;;;;;;;14.57;11.43;;;18.90;99.90;;;;;;4940294;28;92472;-35
2022/06/23 06:23:57;;;;;;;;;;;19.00;99.90;;;;;;4940026;28;96306;-38
2022/06/23 06:26:29;;;;;;;14.23;12.73;;;19.30;99.90;;;;;;4941798;28;93741;-35
2022/06/23 06:28:59;;;;;;;12.02;10.55;;;19.50;99.90;;;;;;4940071;28;93536;-37
2022/06/23 06:31:31;;;;;;;11.88;10.30;;;19.60;99.90;;;;;;4940002;28;94602;-33
2022/06/23 06:34:12;;;;;;;13.13;10.95;;;19.60;99.90;;;;;;4939081;28;95837;-34
2022/06/23 06:36:47;;;;;;;11.73;10.50;;;19.80;99.90;;;;;;4939466;28;95598;-37
2022/06/23 06:39:18;;;;;;;10.93;9.95;;;20.10;99.90;;;;;;4940022;28;94715;-33
2022/06/23 06:41:54;;;;;;;16.60;10.57;;;20.30;99.90;;;;;;4940778;28;93121;-34
2022/06/23 06:44:19;;;;;;;11.60;10.40;;;20.70;99.90;;;;;;4939795;28;93393;-35
2022/06/23 06:46:46;;;;;;;11.15;9.10;;;21.20;99.90;;;;;;4939550;28;94579;-36
2022/06/23 06:49:23;;;;;;;11.20;10.25;;;21.50;99.90;;;;;;4940102;28;92756;-36
2022/06/23 06:51:51;;;;;;;10.13;8.77;;;21.20;99.90;;;;;;4925954;28;92594;-36
2022/06/23 06:54:22;;;;;;;9.63;8.45;;;21.10;99.90;;;;;;4912852;28;94799;-38
2022/06/23 06:56:55;;;;;;;10.20;8.70;;;21.40;99.90;;;;;;4900255;28;94526;-33
2022/06/23 06:59:33;;;;;;;11.45;9.43;;;21.20;99.90;;;;;;4912840;28;93127;-36
2022/06/23 07:02:11;;;;;;;12.05;10.43;;;21.40;99.90;;;;;;4919026;28;94217;-36
2022/06/23 07:04:45;;;;;;;13.68;9.30;;;21.70;99.90;;;;;;4924444;28;96757;-35
2022/06/23 07:07:21;;;;;;;13.40;9.77;;;22.20;99.90;;;;;;4937933;28;94618;-39
2022/06/23 07:09:50;;;;;;;12.45;9.30;;;22.40;99.90;;;;;;4937170;28;94682;-35
2022/06/23 07:12:29;;;;;;;14.93;8.45;;;22.10;99.90;;;;;;4936775;28;93500;-36
2022/06/23 07:15:14;;;;;;;10.73;9.40;;;22.20;99.90;;;;;;4937476;28;95507;-35
2022/06/23 07:18:19;;;;;;;12.07;9.27;;;22.20;99.90;;;;;;4937585;28;95189;-36
2022/06/23 07:20:49;;;;;;;10.18;7.97;;;22.70;99.90;;;;;;4930447;28;94579;-39
2022/06/23 07:23:42;;;;;;;9.30;7.88;;;22.90;99.90;;;;;;4924143;28;93674;-35
2022/06/23 07:26:28;;;;;;;8.57;7.80;;;23.10;99.90;;;;;;4928360;28;96458;-36
2022/06/23 07:29:00;;;;;;;11.05;8.05;;;23.10;99.90;;;;;;4947637;28;95540;-36
2022/06/23 07:31:43;;;;;;;8.93;8.02;;;23.20;99.90;;;;;;4944798;28;93393;-38
2022/06/23 07:34:11;;;;;;;8.38;6.70;;;23.50;99.90;;;;;;4942557;28;92683;-35
2022/06/23 07:36:55;;;;;;;6.43;5.93;;;23.60;99.90;;;;;;4941602;28;94485;-35
2022/06/23 07:39:23;;;;;;;10.85;6.78;;;24.00;99.90;;;;;;4942130;28;94750;-35
2022/06/23 07:42:05;;;;;;;10.43;7.50;;;24.20;99.90;;;;;;4940037;28;93924;-36
2022/06/23 07:44:40;;;;;;;10.95;8.77;;;24.20;99.90;;;;;;4945170;28;91674;-34
2022/06/23 07:47:06;;;;;;;7.40;6.70;;;24.10;99.90;;;;;;4943365;28;95125;-36
2022/06/23 07:49:33;;;;;;;9.82;6.22;;;24.00;99.90;;;;;;4937372;28;94211;-36
2022/06/23 07:52:00;;;;;;;9.98;7.60;;;24.10;99.90;;;;;;4936540;28;93773;-37
2022/06/23 07:54:27;;;;;;;7.05;6.40;;;24.30;99.90;;;;;;4937117;28;93583;-38
2022/06/23 07:56:54;;;;;;;8.65;7.68;;;24.50;99.90;;;;;;4937333;28;94952;-34
2022/06/23 07:59:28;;;;;;;8.67;7.57;;;24.50;99.90;;;;;;4936669;28;94559;-38
2022/06/23 08:02:01;;;;;;;14.93;7.43;;;24.50;99.90;;;;;;4930951;28;94047;-34
2022/06/23 08:04:37;;;;;;;7.78;7.07;;;24.50;99.90;;;;;;4936313;28;92655;-38
2022/06/23 08:07:08;;;;;;;7.88;7.07;;;24.70;99.90;;;;;;4928080;28;95472;-35
2022/06/23 08:09:51;;;;;;;7.20;6.55;;;24.70;99.90;;;;;;4936995;28;93327;-37
2022/06/23 08:18:10;;;;;;;10.90;6.50;;;24.90;99.90;;;;;;4935626;28;94192;-36
2022/06/23 08:20:45;;;;;;;8.67;6.83;;;25.10;99.90;;;;;;4936380;28;95597;-35
2022/06/23 08:23:12;;;;;;;8.35;6.13;;;25.30;97.20;;;;;;4936151;28;94213;-35
2022/06/23 08:25:40;;;;;;;6.55;5.95;;;25.30;99.90;;;;;;4938206;28;93160;-35
2022/06/23 08:28:06;;;;;;;7.72;5.55;;;25.20;99.90;;;;;;4937337;28;94700;-35
2022/06/23 08:30:36;;;;;;;6.65;5.72;;;25.50;95.60;;;;;;4937280;28;94596;-35
2022/06/23 08:33:02;;;;;;;6.15;5.55;;;25.70;90.20;;;;;;4938638;28;92919;-35
2022/06/23 08:35:40;;;;;;;10.82;5.85;;;25.70;84.80;;;;;;4938338;28;91653;-36
2022/06/23 08:38:27;;;;;;;12.93;7.10;;;25.90;96.40;;;;;;4938193;28;94513;-38
2022/06/23 08:40:55;;;;;;;7.35;6.63;;;26.00;99.90;;;;;;4943390;28;94583;-40
2022/06/23 08:43:39;;;;;;;10.05;7.63;;;26.10;97.80;;;;;;4944932;28;94328;-38
2022/06/23 08:46:32;;;;;;;9.05;6.13;;;25.90;92.00;;;;;;4938453;28;94623;-36
2022/06/23 08:49:11;;;;;;;6.40;5.85;;;26.00;98.50;;;;;;4937725;28;95059;-34
2022/06/23 08:51:37;;;;;;;8.10;5.63;;;26.20;99.90;;;;;;4937645;28;95035;-39
2022/06/23 08:54:08;;;;;;;7.03;5.43;;;26.40;99.10;;;;;;4939056;28;92674;-37
2022/06/23 08:56:48;;;;;;;6.07;5.57;;;26.40;81.70;;;;;;4938737;28;94133;-36
2022/06/23 08:59:43;;;;;;;8.45;6.22;;;26.30;77.80;;;;;;4937947;28;94876;-36
2022/06/23 09:02:23;;;;;;;6.00;5.32;;;26.30;84.50;;;;;;4938610;28;94634;-34
2022/06/23 09:05:07;;;;;;;7.25;5.60;;;26.30;82.00;;;;;;4938029;28;93457;-38
2022/06/23 09:07:59;;;;;;;8.43;6.05;;;26.50;78.60;;;;;;4938025;28;93022;-35
2022/06/23 09:10:59;;;;;;;6.10;5.50;;;26.70;84.90;;;;;;4937947;28;95850;-34
2022/06/23 09:13:28;;;;;;;6.53;5.65;;;26.90;74.00;;;;;;4938421;28;94488;-36
2022/06/23 09:16:29;;;;;;;6.78;5.00;;;27.00;78.30;;;;;;4938079;28;94178;-34
2022/06/23 09:19:32;;;;;;;7.60;4.70;;;27.10;76.60;;;;;;4937579;28;94617;-37
2022/06/23 09:22:27;;;;;;;7.65;5.20;;;27.10;79.80;;;;;;4937632;28;95317;-36
2022/06/23 09:24:56;;;;;;;5.93;5.05;;;27.20;75.40;;;;;;4937479;28;94535;-35
2022/06/23 09:28:00;;;;;;;6.03;5.13;;;27.40;76.90;;;;;;4939803;28;92329;-34
2022/06/23 09:31:06;;;;;;;5.47;4.97;;;27.60;68.00;;;;;;4938353;28;94215;-40
2022/06/23 09:33:51;;;;;;;5.88;5.38;;;27.50;68.60;;;;;;4895136;28;94709;-34
2022/06/23 09:37:00;;;;;;;5.15;4.72;;;27.40;65.90;;;;;;4935492;28;95019;-35
2022/06/23 09:39:46;;;;;;;9.38;5.13;;;27.40;73.90;;;;;;4937892;28;94145;-34
2022/06/23 09:42:37;;;;;;;9.48;5.10;;;27.70;71.40;;;;;;4937754;28;92203;-35
2022/06/23 09:45:35;;;;;;;4.75;4.25;;;27.80;66.00;;;;;;4918884;28;94881;-40
2022/06/23 09:48:06;;;;;;;5.75;4.05;;;28.20;68.20;;;;;;4933596;28;95227;-38
2022/06/23 09:50:45;;;;;;;5.30;4.22;;;28.20;67.90;;;;;;4937631;28;94252;-36
2022/06/23 09:53:40;;;;;;;6.63;4.40;;;28.00;59.50;;;;;;4937171;28;93697;-40
2022/06/23 09:56:14;;;;;;;4.75;4.28;;;27.90;59.20;;;;;;4935810;28;94881;-34
2022/06/23 09:59:00;;;;;;;4.10;3.80;;;27.80;60.50;;;;;;4922146;28;94649;-37
2022/06/23 10:01:55;;;;;;;4.45;4.05;;;28.10;59.80;;;;;;4933010;28;93576;-36
2022/06/23 10:04:34;;;;;;;4.30;3.90;;;28.30;58.40;;;;;;4935008;28;94650;-37
2022/06/23 10:07:32;;;;;;;3.78;3.38;;;28.30;61.20;;;;;;4927985;28;95824;-36
2022/06/23 10:10:13;;;;;;;5.78;4.22;;;28.50;60.60;;;;;;4935033;28;95835;-38
2022/06/23 10:13:17;;;;;;;4.68;4.28;;;28.70;60.10;;;;;;4935317;28;94131;-36
2022/06/23 10:16:14;;;;;;;6.07;3.90;;;28.80;57.70;;;;;;4930309;28;93142;-37
2022/06/23 10:19:13;;;;;;;4.07;3.73;;;28.80;59.50;;;;;;4934477;28;95962;-39
2022/06/23 10:22:16;;;;;;;4.32;4.00;;;28.80;59.20;;;;;;4934687;28;94552;-34
2022/06/23 10:24:59;;;;;;;5.93;4.40;;;28.70;57.60;;;;;;4934989;28;92267;-37
2022/06/23 10:27:34;;;;;;;5.28;4.25;;;28.80;59.60;;;;;;4929698;28;93633;-36
2022/06/23 10:30:29;;;;;;;3.60;3.30;;;28.80;57.40;;;;;;4934293;28;96615;-38
2022/06/23 10:32:57;;;;;;;4.70;3.70;;;28.90;55.10;;;;;;4934286;28;94439;-37
2022/06/23 10:35:52;;;;;;;3.95;3.58;;;29.00;57.20;;;;;;4935569;28;93338;-35
2022/06/23 10:38:28;;;;;;;3.80;3.42;;;29.10;58.10;;;;;;4935005;28;92956;-36
2022/06/23 10:40:57;;;;;;;5.72;3.90;;;29.20;57.30;;;;;;4926704;28;95020;-37
2022/06/23 10:43:51;;;;;;;5.50;3.95;;;29.10;56.60;;;;;;4933972;28;93108;-35
2022/06/23 10:46:30;;;;;;;3.88;3.60;;;29.10;56.40;;;;;;4932944;28;93310;-36
2022/06/23 10:49:38;;;;;;;3.83;3.53;;;29.10;56.00;;;;;;4938206;28;93092;-37
2022/06/23 10:52:32;;;;;;;8.43;3.95;;;29.20;53.90;;;;;;4913859;28;94282;-41
2022/06/23 10:55:16;;;;;;;4.10;3.70;;;29.20;55.00;;;;;;4920440;28;94652;-34
2022/06/23 10:58:02;;;;;;;4.53;4.18;;;29.30;55.00;;;;;;4936130;28;93102;-38
2022/06/23 11:00:44;;;;;;;4.32;3.92;;;29.10;56.10;;;;;;4938522;28;93617;-37
2022/06/23 11:03:10;;;;;;;4.25;3.95;;;29.20;55.60;;;;;;4930877;28;95539;-35
2022/06/23 11:06:00;;;;;;;5.13;4.63;;;29.20;56.90;;;;;;4922757;28;95326;-36
2022/06/23 11:08:57;;;;;;;3.95;3.65;;;29.20;53.50;;;;;;4933942;28;94177;-39
2022/06/23 11:11:34;;;;;;;4.80;4.30;;;29.10;54.50;;;;;;4937847;28;93152;-38
2022/06/23 11:14:10;;;;;;;4.07;3.53;;;29.20;55.20;;;;;;4937725;28;94903;-36
2022/06/23 11:16:45;;;;;;;4.10;3.53;;;29.20;55.00;;;;;;4936745;28;94541;-39
2022/06/23 11:19:49;;;;;;;4.60;4.20;;;29.10;55.20;;;;;;4938272;28;93349;-38
2022/06/23 11:22:43;;;;;;;5.70;3.63;;;29.30;54.70;;;;;;4938093;28;92461;-37
2022/06/23 11:25:36;;;;;;;3.67;3.38;;;29.30;54.80;;;;;;4937855;28;94857;-35
2022/06/23 11:28:27;;;;;;;6.63;3.30;;;29.40;56.10;;;;;;4937060;28;94445;-37
2022/06/23 11:31:24;;;;;;;4.35;4.00;;;29.50;56.10;;;;;;4936677;28;94440;-38
2022/06/23 11:34:31;;;;;;;6.30;3.90;;;29.50;54.60;;;;;;4937675;28;93677;-34
2022/06/23 11:37:39;;;;;;;3.53;3.33;;;29.50;53.90;;;;;;4936840;28;94575;-38
2022/06/23 11:40:26;;;;;;;4.88;3.38;;;29.40;53.50;;;;;;4936685;28;95030;-36
2022/06/23 11:43:09;;;;;;;4.28;3.92;;;29.50;55.10;;;;;;4936949;28;94037;-39
2022/06/23 11:45:52;;;;;;;4.72;3.47;;;29.60;54.80;;;;;;4937546;28;93372;-40
2022/06/23 11:48:35;;;;;;;4.47;3.25;;;29.50;53.40;;;;;;4938017;28;94463;-36
2022/06/23 11:51:28;;;;;;;6.18;3.67;;;29.50;53.50;;;;;;4936304;28;94638;-36
2022/06/23 11:54:22;;;;;;;4.05;3.72;;;29.70;52.00;;;;;;4937458;28;93059;-35
2022/06/23 11:57:03;;;;;;;5.72;4.03;;;29.70;52.90;;;;;;4925248;28;93056;-38
2022/06/23 11:59:55;;;;;;;4.25;3.95;;;29.80;52.70;;;;;;4924204;28;95593;-35
2022/06/23 12:02:21;;;;;;;4.97;4.10;;;29.80;51.20;;;;;;4925072;28;94910;-35
2022/06/23 12:05:21;;;;;;;4.00;3.75;;;29.70;52.00;;;;;;4936886;28;93097;-38
2022/06/23 12:08:08;;;;;;;5.07;3.78;;;29.70;52.00;;;;;;4925372;28;93314;-35
2022/06/23 12:10:36;;;;;;;4.82;4.32;;;29.70;52.30;;;;;;4922987;28;94709;-34
2022/06/23 12:13:03;;;;;;;3.63;3.33;;;29.80;54.00;;;;;;4936653;28;95081;-36
2022/06/23 12:15:33;;;;;;;10.52;3.92;;;29.70;52.80;;;;;;4937067;28;94531;-35
2022/06/23 12:18:16;;;;;;;5.47;3.78;;;29.80;52.90;;;;;;4936264;28;93558;-36
2022/06/23 12:20:57;;;;;;;4.13;3.83;;;29.90;52.20;;;;;;4936783;28;94565;-38
2022/06/23 12:23:47;;;;;;;8.02;3.97;;;30.00;51.20;;;;;;4937027;28;94721;-36
2022/06/23 12:26:38;;;;;;;6.07;3.47;;;29.90;50.00;;;;;;4936035;28;95094;-37
2022/06/23 12:29:16;;;;;;;9.60;4.18;;;30.00;49.80;;;;;;4936130;28;92891;-38
2022/06/23 12:32:05;;;;;;;51.50;8.45;;;29.90;48.20;;;;;;4935277;28;94904;-35
2022/06/23 12:34:38;;;;;;;5.57;4.00;;;29.90;49.40;;;;;;4936028;28;94902;-37
2022/06/23 12:37:22;;;;;;;6.10;4.20;;;29.80;50.40;;;;;;4936377;28;94616;-36
2022/06/23 12:40:19;;;;;;;20.88;5.20;;;29.90;52.60;;;;;;4934014;28;94777;-35
2022/06/23 12:42:52;;;;;;;4.82;4.05;;;30.00;50.60;;;;;;4929199;28;94508;-34
2022/06/23 12:45:42;;;;;;;5.18;3.92;;;30.10;51.20;;;;;;4935209;28;94116;-38
2022/06/23 12:48:32;;;;;;;5.10;3.70;;;30.20;50.10;;;;;;4933865;28;93099;-35
2022/06/23 12:51:20;;;;;;;4.72;4.05;;;30.00;50.90;;;;;;4933800;28;92559;-36
2022/06/23 12:54:29;;;;;;;5.72;4.35;;;30.10;48.80;;;;;;4935397;28;95952;-38
2022/06/23 12:57:30;;;;;;;5.70;4.30;;;30.20;48.60;;;;;;4926993;28;95392;-38
2022/06/23 13:00:05;;;;;;;5.50;4.13;;;30.00;49.20;;;;;;4880947;28;93271;-38
2022/06/23 13:02:38;;;;;;;3.45;3.15;;;30.00;49.20;;;;;;4918316;28;95115;-37
2022/06/23 13:05:04;;;;;;;3.95;3.65;;;30.20;49.30;;;;;;4975188;22;95936;-35
2022/06/23 13:07:39;;;;;;;3.63;3.33;;;30.20;47.80;;;;;;4954453;28;94824;-41
2022/06/23 13:10:16;;;;;;;6.05;4.25;;;30.30;49.90;;;;;;4954072;28;94829;-36
2022/06/23 13:13:03;;;;;;;4.78;4.28;;;30.30;48.70;;;;;;4899028;27;92771;-37
2022/06/23 13:15:53;;;;;;;4.18;3.53;;;30.50;48.80;;;;;;4974047;28;96095;-35
2022/06/23 13:18:24;;;;;;;4.82;3.55;;;30.70;48.40;;;;;;4973952;28;94409;-35
2022/06/23 13:20:56;;;;;;;12.90;4.45;;;30.70;48.80;;;;;;4973986;28;95080;-37
2022/06/23 13:23:32;;;;;;;7.78;4.20;;;30.80;49.90;;;;;;4975457;28;94908;-34
2022/06/23 13:26:18;;;;;;;8.73;3.80;;;30.70;47.20;;;;;;4974156;28;94704;-36
2022/06/23 13:28:45;;;;;;;5.43;3.88;;;30.60;48.80;;;;;;4973836;28;95314;-36
2022/06/23 13:31:20;;;;;;;5.13;4.15;;;30.50;48.90;;;;;;4973909;28;93327;-38
2022/06/23 13:33:56;;;;;;;17.83;4.95;;;30.40;49.30;;;;;;4974806;28;94432;-36
2022/06/23 13:36:36;;;;;;;4.50;3.63;;;30.30;48.60;;;;;;4974147;28;94517;-39
2022/06/23 13:39:26;;;;;;;3.65;3.35;;;30.30;47.90;;;;;;4974241;28;95238;-34
2022/06/23 13:42:12;;;;;;;4.47;4.07;;;30.30;47.10;;;;;;4974278;28;94659;-36
2022/06/23 13:44:59;;;;;;;18.05;4.65;;;30.20;48.20;;;;;;4974118;28;94676;-39
2022/06/23 13:47:41;;;;;;;7.30;4.72;;;30.30;48.90;;;;;;4973722;28;95503;-37
2022/06/23 13:50:35;;;;;;;6.30;3.95;;;30.30;48.00;;;;;;4974033;28;95966;-38
2022/06/23 13:53:05;;;;;;;3.70;3.38;;;30.30;48.60;;;;;;4973926;28;93776;-36
2022/06/23 13:55:45;;;;;;;3.85;3.55;;;30.20;48.50;;;;;;4974630;28;93465;-36
2022/06/23 13:58:33;;;;;;;4.95;3.97;;;30.10;47.90;;;;;;4974014;28;95997;-37
2022/06/23 14:01:11;;;;;;;;;;;30.10;48.50;;;;;;4973795;28;94593;-38